Orchid Ace — 7JDE — position and weather

sailwx.info

Track history (hours):
 
Tides and Currents Weather Stations Pressure Air Temp Water Temp Dewpoint Dewpoint Depression Visibility Wind Speed Wind Dir Waves Ship Positions

Orchid Ace

Last reported at 2016-Jan-22 19:15 UTC. Time now 2016-Feb-09 03:29 UTC.
Position S 26°20' E 156°10'.
Warning: this ship's position is 17 days out of date.

Length 200 m; draft 7.2 m.

Type: Cargo ship. MMSI: 432651000.

Date/timePositionNaut miles runAvg speedWind from/ knotsBaromVisibWave heightAir tempDewpointWater temp
2016-Jan-22 19:15S 26°20' E 156°10'1115.3
2016-Jan-22 18:32S 26°31' E 156°10'1515.2
2016-Jan-22 17:33S 26°46' E 156°10'1515.2
2016-Jan-22 16:33S 27°01' E 156°10'1914.8
2016-Jan-22 15:18S 27°19' E 156°10'30614.7
2016-Jan-21 18:33S 32°13' E 154°32'1813.6
2016-Jan-21 17:13S 32°28' E 154°20'1113.8
2016-Jan-21 16:25S 32°38' E 154°13'9513.7
2016-Jan-21 09:28S 33°59' E 153°12'1112.5
2016-Jan-21 08:33S 34°08' E 153°05'1212.1
2016-Jan-21 07:33S 34°18' E 152°57'1211.9
2016-Jan-21 06:33S 34°28' E 152°49'1312.2
2016-Jan-21 05:30S 34°39' E 152°41'1212.4
2016-Jan-21 04:33S 34°49' E 152°33'1212.4
2016-Jan-21 03:33S 34°60' E 152°25'1515.0
2016-Jan-21 02:33S 35°12' E 152°16'1716.9
2016-Jan-21 01:34S 35°27' E 152°04'1515.2
2016-Jan-21 00:33S 35°40' E 151°55'1515.5
2016-Jan-20 23:34S 35°53' E 151°44'1615.7
2016-Jan-20 22:33S 36°06' E 151°34'1515.5
2016-Jan-20 21:33S 36°19' E 151°24'1615.6
2016-Jan-20 20:33S 36°32' E 151°13'1515.5
2016-Jan-20 19:34S 36°45' E 151°03'1615.7
2016-Jan-20 18:34S 36°59' E 150°53'1615.5
2016-Jan-20 17:33S 37°12' E 150°42'1615.6
2016-Jan-20 16:34S 37°25' E 150°32'1615.5
2016-Jan-20 15:34S 37°37' E 150°21'1515.1
2016-Jan-20 14:34S 37°46' E 150°05'1413.8
2016-Jan-20 13:33S 37°54' E 149°51'1413.6
2016-Jan-20 12:34S 38°02' E 149°37'1514.5
2016-Jan-20 11:33S 38°10' E 149°22'1515.0
2016-Jan-20 10:33S 38°19' E 149°06'1515.0
2016-Jan-20 09:34S 38°28' E 148°50'1515.2
2016-Jan-20 08:34S 38°36' E 148°34'1514.7
2016-Jan-20 07:34S 38°45' E 148°19'1413.8
2016-Jan-20 06:32S 38°51' E 148°02'3214.7
2016-Jan-20 04:20S 39°02' E 147°23'1215.4
2016-Jan-20 03:33S 39°06' E 147°09'1817.9
2016-Jan-20 02:33S 39°12' E 146°47'1918.7
2016-Jan-20 01:34S 39°17' E 146°24'1615.7
2016-Jan-20 00:33S 39°17' E 146°04'1615.9
2016-Jan-19 23:33S 39°08' E 145°47'1615.8
2016-Jan-19 22:33S 38°58' E 145°31'73 2.6
2016-Jan-18 18:14S 37°50' E 144°54'52 4.0
2016-Jan-18 05:24S 38°41' E 145°06'1819.6
2016-Jan-18 04:30S 38°50' E 145°26'1919.7
2016-Jan-18 03:33S 39°00' E 145°46'2020.3
2016-Jan-18 02:33S 39°11' E 146°08'2020.0
2016-Jan-18 01:33S 39°08' E 146°34'2019.5
2016-Jan-18 00:33S 39°02' E 146°58'1919.1
2016-Jan-17 23:33S 38°56' E 147°21'1919.2
2016-Jan-17 22:33S 38°50' E 147°45'1919.4
2016-Jan-17 21:33S 38°44' E 148°08'2019.8
2016-Jan-17 20:33S 38°34' E 148°30'2019.8
2016-Jan-17 19:34S 38°23' E 148°51'2019.7
2016-Jan-17 18:33S 38°12' E 149°12'2120.5
2016-Jan-17 17:33S 38°01' E 149°33'2020.3
2016-Jan-17 16:33S 37°48' E 149°54'2120.7
2016-Jan-17 15:33S 37°32' E 150°11'2120.8
2016-Jan-17 14:33S 37°12' E 150°17'2020.3
2016-Jan-17 13:33S 36°53' E 150°25'2020.3
2016-Jan-17 12:33S 36°33' E 150°32'2020.3
2016-Jan-17 11:33S 36°14' E 150°39'2020.2
2016-Jan-17 10:33S 35°54' E 150°46'2019.7
2016-Jan-17 09:33S 35°35' E 150°52'2019.5
2016-Jan-17 08:32S 35°16' E 150°59'131 3.9
2016-Jan-15 23:06S 33°20' E 152°11'916.0
2016-Jan-15 22:33S 33°13' E 152°17'1615.6
2016-Jan-15 21:33S 33°00' E 152°28'1615.7
2016-Jan-15 20:33S 32°50' E 152°42'1514.8
2016-Jan-15 19:33S 32°38' E 152°53'28913.8
2016-Jan-14 22:34S 27°53' E 153°51'3919.5
2016-Jan-14 20:33S 27°14' E 153°48'1817.8
2016-Jan-14 19:33S 26°58' E 153°39'1818.0
2016-Jan-14 18:34S 26°48' E 153°23'1111.2
2016-Jan-14 17:33S 26°44' E 153°11'1514.7
2016-Jan-14 16:34S 26°59' E 153°14'1616.0
2016-Jan-14 15:34S 27°14' E 153°20'1312.9
2016-Jan-14 14:34S 27°23' E 153°10'0 0.1
2016-Jan-14 13:33S 27°23' E 153°10'0 0.0
2016-Jan-14 12:33S 27°23' E 153°10'0 0.0
2016-Jan-14 11:33S 27°23' E 153°10'0 0.0
2016-Jan-14 10:33S 27°23' E 153°10'0 0.0
2016-Jan-14 09:33S 27°23' E 153°10'0 0.0
2016-Jan-14 08:33S 27°23' E 153°10'0 0.0
2016-Jan-14 07:33S 27°23' E 153°10'0 0.0
2016-Jan-14 06:33S 27°23' E 153°10'0 0.0
2016-Jan-14 05:33S 27°23' E 153°10'0 0.0
2016-Jan-14 04:33S 27°23' E 153°10'0 0.1
2016-Jan-14 03:33S 27°23' E 153°10'9 8.8
2016-Jan-14 02:33S 27°16' E 153°16'1313.5
2016-Jan-14 01:33S 27°03' E 153°16'1414.3
2016-Jan-14 00:33S 26°49' E 153°11'8 8.1
2016-Jan-13 23:33S 26°41' E 153°13'9 8.6
2016-Jan-13 22:33S 26°33' E 153°16'1615.6
2016-Jan-13 21:33S 26°18' E 153°20'1915.8
2016-Jan-13 20:22S 25°59' E 153°25'  
Track history (hours):
 
Tides and Currents Weather Stations Pressure Air Temp Water Temp Dewpoint Dewpoint Depression Visibility Wind Speed Wind Dir Waves Ship Positions

Orchid Ace

Last reported at 2016-Jan-22 19:15 UTC. Time now 2016-Feb-09 03:29 UTC.
Position S 26°20' E 156°10'.
Warning: this ship's position is 17 days out of date.

Length 200 m; draft 7.2 m.

Type: Cargo ship. MMSI: 432651000.

Date/timePositionNaut miles runAvg speedWind from/ knotsBaromVisibWave heightAir tempDewpointWater temp
2016-Jan-22 19:15S 26°20' E 156°10'1115.3
2016-Jan-22 18:32S 26°31' E 156°10'1515.2
2016-Jan-22 17:33S 26°46' E 156°10'1515.2
2016-Jan-22 16:33S 27°01' E 156°10'1914.8
2016-Jan-22 15:18S 27°19' E 156°10'30614.7
2016-Jan-21 18:33S 32°13' E 154°32'1813.6
2016-Jan-21 17:13S 32°28' E 154°20'1113.8
2016-Jan-21 16:25S 32°38' E 154°13'9513.7
2016-Jan-21 09:28S 33°59' E 153°12'1112.5
2016-Jan-21 08:33S 34°08' E 153°05'1212.1
2016-Jan-21 07:33S 34°18' E 152°57'1211.9
2016-Jan-21 06:33S 34°28' E 152°49'1312.2
2016-Jan-21 05:30S 34°39' E 152°41'1212.4
2016-Jan-21 04:33S 34°49' E 152°33'1212.4
2016-Jan-21 03:33S 34°60' E 152°25'1515.0
2016-Jan-21 02:33S 35°12' E 152°16'1716.9
2016-Jan-21 01:34S 35°27' E 152°04'1515.2
2016-Jan-21 00:33S 35°40' E 151°55'1515.5
2016-Jan-20 23:34S 35°53' E 151°44'1615.7
2016-Jan-20 22:33S 36°06' E 151°34'1515.5
2016-Jan-20 21:33S 36°19' E 151°24'1615.6
2016-Jan-20 20:33S 36°32' E 151°13'1515.5
2016-Jan-20 19:34S 36°45' E 151°03'1615.7
2016-Jan-20 18:34S 36°59' E 150°53'1615.5
2016-Jan-20 17:33S 37°12' E 150°42'1615.6
2016-Jan-20 16:34S 37°25' E 150°32'1615.5
2016-Jan-20 15:34S 37°37' E 150°21'1515.1
2016-Jan-20 14:34S 37°46' E 150°05'1413.8
2016-Jan-20 13:33S 37°54' E 149°51'1413.6
2016-Jan-20 12:34S 38°02' E 149°37'1514.5
2016-Jan-20 11:33S 38°10' E 149°22'1515.0
2016-Jan-20 10:33S 38°19' E 149°06'1515.0
2016-Jan-20 09:34S 38°28' E 148°50'1515.2
2016-Jan-20 08:34S 38°36' E 148°34'1514.7
2016-Jan-20 07:34S 38°45' E 148°19'1413.8
2016-Jan-20 06:32S 38°51' E 148°02'3214.7
2016-Jan-20 04:20S 39°02' E 147°23'1215.4
2016-Jan-20 03:33S 39°06' E 147°09'1817.9
2016-Jan-20 02:33S 39°12' E 146°47'1918.7
2016-Jan-20 01:34S 39°17' E 146°24'1615.7
2016-Jan-20 00:33S 39°17' E 146°04'1615.9
2016-Jan-19 23:33S 39°08' E 145°47'1615.8
2016-Jan-19 22:33S 38°58' E 145°31'73 2.6
2016-Jan-18 18:14S 37°50' E 144°54'52 4.0
2016-Jan-18 05:24S 38°41' E 145°06'1819.6
2016-Jan-18 04:30S 38°50' E 145°26'1919.7
2016-Jan-18 03:33S 39°00' E 145°46'2020.3
2016-Jan-18 02:33S 39°11' E 146°08'2020.0
2016-Jan-18 01:33S 39°08' E 146°34'2019.5
2016-Jan-18 00:33S 39°02' E 146°58'1919.1
2016-Jan-17 23:33S 38°56' E 147°21'1919.2
2016-Jan-17 22:33S 38°50' E 147°45'1919.4
2016-Jan-17 21:33S 38°44' E 148°08'2019.8
2016-Jan-17 20:33S 38°34' E 148°30'2019.8
2016-Jan-17 19:34S 38°23' E 148°51'2019.7
2016-Jan-17 18:33S 38°12' E 149°12'2120.5
2016-Jan-17 17:33S 38°01' E 149°33'2020.3
2016-Jan-17 16:33S 37°48' E 149°54'2120.7
2016-Jan-17 15:33S 37°32' E 150°11'2120.8
2016-Jan-17 14:33S 37°12' E 150°17'2020.3
2016-Jan-17 13:33S 36°53' E 150°25'2020.3
2016-Jan-17 12:33S 36°33' E 150°32'2020.3
2016-Jan-17 11:33S 36°14' E 150°39'2020.2
2016-Jan-17 10:33S 35°54' E 150°46'2019.7
2016-Jan-17 09:33S 35°35' E 150°52'2019.5
2016-Jan-17 08:32S 35°16' E 150°59'131 3.9
2016-Jan-15 23:06S 33°20' E 152°11'916.0
2016-Jan-15 22:33S 33°13' E 152°17'1615.6
2016-Jan-15 21:33S 33°00' E 152°28'1615.7
2016-Jan-15 20:33S 32°50' E 152°42'1514.8
2016-Jan-15 19:33S 32°38' E 152°53'28913.8
2016-Jan-14 22:34S 27°53' E 153°51'3919.5
2016-Jan-14 20:33S 27°14' E 153°48'1817.8
2016-Jan-14 19:33S 26°58' E 153°39'1818.0
2016-Jan-14 18:34S 26°48' E 153°23'1111.2
2016-Jan-14 17:33S 26°44' E 153°11'1514.7
2016-Jan-14 16:34S 26°59' E 153°14'1616.0
2016-Jan-14 15:34S 27°14' E 153°20'1312.9
2016-Jan-14 14:34S 27°23' E 153°10'0 0.1
2016-Jan-14 13:33S 27°23' E 153°10'0 0.0
2016-Jan-14 12:33S 27°23' E 153°10'0 0.0
2016-Jan-14 11:33S 27°23' E 153°10'0 0.0
2016-Jan-14 10:33S 27°23' E 153°10'0 0.0
2016-Jan-14 09:33S 27°23' E 153°10'0 0.0
2016-Jan-14 08:33S 27°23' E 153°10'0 0.0
2016-Jan-14 07:33S 27°23' E 153°10'0 0.0
2016-Jan-14 06:33S 27°23' E 153°10'0 0.0
2016-Jan-14 05:33S 27°23' E 153°10'0 0.0
2016-Jan-14 04:33S 27°23' E 153°10'0 0.1
2016-Jan-14 03:33S 27°23' E 153°10'9 8.8
2016-Jan-14 02:33S 27°16' E 153°16'1313.5
2016-Jan-14 01:33S 27°03' E 153°16'1414.3
2016-Jan-14 00:33S 26°49' E 153°11'8 8.1
2016-Jan-13 23:33S 26°41' E 153°13'9 8.6
2016-Jan-13 22:33S 26°33' E 153°16'1615.6
2016-Jan-13 21:33S 26°18' E 153°20'1915.8
2016-Jan-13 20:22S 25°59' E 153°25'  

Dump ship's entire track history